createdAt,value
2022-10-03T00:01:25.240Z,13.94
2022-10-03T00:04:08.076Z,13.93
2022-10-03T00:06:51.968Z,13.92
2022-10-03T00:09:44.924Z,13.91
2022-10-03T00:12:21.510Z,13.82
2022-10-03T00:15:00.707Z,13.88
2022-10-03T00:17:39.110Z,13.88
2022-10-03T00:20:15.463Z,13.88
2022-10-03T00:22:50.063Z,13.87
2022-10-03T00:25:35.009Z,13.84
2022-10-03T00:28:19.506Z,13.77
2022-10-03T00:31:03.524Z,13.82
2022-10-03T00:33:40.007Z,13.81
2022-10-03T00:36:14.575Z,13.81
2022-10-03T00:39:23.992Z,13.78
2022-10-03T00:42:17.859Z,13.76
2022-10-03T00:45:13.409Z,13.74
2022-10-03T00:48:06.245Z,13.73
2022-10-03T00:51:02.106Z,13.73
2022-10-03T00:53:43.632Z,13.72
2022-10-03T00:56:36.409Z,13.70
2022-10-03T00:59:26.331Z,13.68
2022-10-03T01:01:55.076Z,13.66
2022-10-03T01:04:45.215Z,13.66
2022-10-03T01:07:30.671Z,13.65
2022-10-03T01:10:14.591Z,13.63
2022-10-03T01:12:58.507Z,13.62
2022-10-03T01:15:39.974Z,13.61
2022-10-03T01:18:20.240Z,13.60
2022-10-03T01:20:59.448Z,13.58
2022-10-03T01:23:57.100Z,13.57
2022-10-03T01:26:48.716Z,13.56
2022-10-03T01:29:41.480Z,13.54
2022-10-03T01:32:15.893Z,13.51
2022-10-03T01:34:50.167Z,13.51
2022-10-03T01:37:24.961Z,13.49
2022-10-03T01:40:01.008Z,13.48
2022-10-03T01:42:41.930Z,13.48
2022-10-03T01:45:29.259Z,13.47
2022-10-03T01:48:01.701Z,13.45
2022-10-03T01:50:36.614Z,13.42
2022-10-03T01:53:13.525Z,13.44
2022-10-03T01:55:55.658Z,13.42
2022-10-03T01:58:28.839Z,13.28
2022-10-03T02:01:07.527Z,13.38
2022-10-03T02:03:40.232Z,13.39
2022-10-03T02:06:20.410Z,13.30
2022-10-03T02:08:56.426Z,13.36
2022-10-03T02:11:32.679Z,13.35
2022-10-03T02:14:14.108Z,13.34
2022-10-03T02:16:45.935Z,13.32
2022-10-03T02:19:21.326Z,13.33
2022-10-03T02:21:51.418Z,13.33
2022-10-03T02:24:30.343Z,13.32
2022-10-03T02:27:21.264Z,13.30
2022-10-03T02:30:09.217Z,13.29
2022-10-03T02:33:03.923Z,13.28
2022-10-03T02:36:18.648Z,13.26
2022-10-03T02:39:04.868Z,13.17
2022-10-03T02:41:57.787Z,13.22
2022-10-03T02:45:20.231Z,13.20
2022-10-03T02:48:31.619Z,13.20
2022-10-03T02:51:29.016Z,13.18
2022-10-03T02:54:41.457Z,13.17
2022-10-03T02:57:29.024Z,13.16
2022-10-03T03:00:08.494Z,13.14
2022-10-03T03:03:07.988Z,13.12
2022-10-03T03:06:20.300Z,13.11
2022-10-03T03:09:13.505Z,13.10
2022-10-03T03:11:59.311Z,13.09
2022-10-03T03:15:02.579Z,13.07
2022-10-03T03:17:36.131Z,13.06
2022-10-03T03:20:32.496Z,13.03
2022-10-03T03:23:19.661Z,13.02
2022-10-03T03:26:05.295Z,13.01
2022-10-03T03:28:47.283Z,13.01
2022-10-03T03:31:18.840Z,13.01
2022-10-03T03:34:00.757Z,12.99
2022-10-03T03:36:36.117Z,12.98
2022-10-03T03:39:19.067Z,12.97
2022-10-03T03:42:12.361Z,12.96
2022-10-03T03:45:11.936Z,12.94
2022-10-03T03:47:56.863Z,12.93
2022-10-03T03:50:35.601Z,12.93
2022-10-03T03:53:24.311Z,12.93
2022-10-03T03:56:06.989Z,12.91
2022-10-03T03:58:42.051Z,12.92
2022-10-03T04:01:38.364Z,12.91
2022-10-03T04:04:21.120Z,12.89
2022-10-03T04:06:58.432Z,12.88
2022-10-03T04:09:44.502Z,12.85
2022-10-03T04:12:25.783Z,12.83
2022-10-03T04:15:13.722Z,12.83
2022-10-03T04:18:17.585Z,12.83
2022-10-03T04:21:01.761Z,12.82
2022-10-03T04:23:50.070Z,12.81
2022-10-03T04:26:31.210Z,12.79
2022-10-03T04:29:24.649Z,12.77
2022-10-03T04:32:08.013Z,12.77
2022-10-03T04:34:51.085Z,12.76
2022-10-03T04:37:35.403Z,12.75
2022-10-03T04:40:24.687Z,12.73
2022-10-03T04:43:04.371Z,12.73
2022-10-03T04:45:56.192Z,12.71
2022-10-03T04:48:38.864Z,12.70
2022-10-03T04:51:15.386Z,12.70
2022-10-03T04:53:51.582Z,12.67
2022-10-03T04:56:34.955Z,12.67
2022-10-03T04:59:11.011Z,12.66
2022-10-03T05:01:48.400Z,12.57
2022-10-03T05:04:27.578Z,12.63
2022-10-03T05:07:07.339Z,12.61
2022-10-03T05:09:43.277Z,12.49
2022-10-03T05:12:22.315Z,12.62
2022-10-03T05:15:09.194Z,12.60
2022-10-03T05:17:47.298Z,12.58
2022-10-03T05:20:38.980Z,12.57
2022-10-03T05:23:29.628Z,12.57
2022-10-03T05:26:39.891Z,12.55
2022-10-03T05:29:03.455Z,12.54
2022-10-03T05:31:45.953Z,12.53
2022-10-03T05:34:23.319Z,12.53
2022-10-03T05:37:08.906Z,12.53
2022-10-03T05:39:44.083Z,12.47
2022-10-03T05:42:35.507Z,12.51
2022-10-03T05:45:07.827Z,12.50
2022-10-03T05:47:49.955Z,12.50
2022-10-03T05:50:42.660Z,12.50
2022-10-03T05:53:27.730Z,12.50
2022-10-03T05:56:06.754Z,12.49
2022-10-03T05:59:33.684Z,12.50
2022-10-03T06:02:32.789Z,12.49
2022-10-03T06:05:23.740Z,12.48
2022-10-03T06:08:20.403Z,12.45
2022-10-03T06:10:55.659Z,12.44
2022-10-03T06:13:39.659Z,12.45
2022-10-03T06:16:23.221Z,12.34
2022-10-03T06:19:15.204Z,12.44
2022-10-03T06:22:34.210Z,12.44
2022-10-03T06:25:28.745Z,12.33
2022-10-03T06:28:37.114Z,12.41
2022-10-03T06:31:14.924Z,12.41
2022-10-03T06:34:08.387Z,12.41
2022-10-03T06:36:55.272Z,12.42
2022-10-03T06:40:25.384Z,12.40
2022-10-03T06:43:20.163Z,12.38
2022-10-03T06:46:19.382Z,12.38
2022-10-03T06:49:22.870Z,12.37
2022-10-03T06:52:41.247Z,12.37
2022-10-03T06:55:35.063Z,12.35
2022-10-03T06:58:25.617Z,12.36
2022-10-03T07:01:00.649Z,12.29
2022-10-03T07:03:48.595Z,12.34
2022-10-03T07:06:40.511Z,12.34
2022-10-03T07:09:53.750Z,12.34
2022-10-03T07:13:00.853Z,12.34
2022-10-03T07:16:08.688Z,12.35
2022-10-03T07:19:02.677Z,12.35
2022-10-03T07:22:18.703Z,12.37
2022-10-03T07:25:18.475Z,12.37
2022-10-03T07:28:16.905Z,12.38
2022-10-03T07:31:00.771Z,12.37
2022-10-03T07:33:47.479Z,12.38
2022-10-03T07:37:01.689Z,12.39
2022-10-03T07:39:57.238Z,12.41
2022-10-03T07:42:52.736Z,12.42
2022-10-03T07:45:34.930Z,12.43
2022-10-03T07:48:17.541Z,12.46
2022-10-03T07:51:13.305Z,12.60
2022-10-03T07:54:07.995Z,12.77
2022-10-03T07:57:07.699Z,12.98
2022-10-03T08:00:22.912Z,13.24
2022-10-03T08:03:24.070Z,13.43
2022-10-03T08:06:26.318Z,13.63
2022-10-03T08:09:37.376Z,13.90
2022-10-03T08:12:43.169Z,13.93
2022-10-03T08:15:20.588Z,13.83
2022-10-03T08:18:34.402Z,13.67
2022-10-03T08:21:03.211Z,13.49
2022-10-03T08:23:55.418Z,13.37
2022-10-03T08:26:35.221Z,13.20
2022-10-03T08:29:41.552Z,13.27
2022-10-03T08:32:40.167Z,13.22
2022-10-03T08:35:31.455Z,13.20
2022-10-03T08:38:33.685Z,13.18
2022-10-03T08:41:38.903Z,13.15
2022-10-03T08:44:37.573Z,13.13
2022-10-03T08:47:31.896Z,13.10
2022-10-03T08:50:32.254Z,13.09
2022-10-03T08:53:28.300Z,13.09
2022-10-03T08:56:05.650Z,13.09
2022-10-03T08:59:13.476Z,13.10
2022-10-03T09:02:04.359Z,13.11
2022-10-03T09:05:14.232Z,13.11
2022-10-03T09:08:19.997Z,13.12
2022-10-03T09:11:14.910Z,13.11
2022-10-03T09:14:29.714Z,13.12
2022-10-03T09:17:15.693Z,13.11
2022-10-03T09:20:06.088Z,13.15
2022-10-03T09:22:54.431Z,13.08
2022-10-03T09:25:40.569Z,13.17
2022-10-03T09:28:42.774Z,13.17
2022-10-03T09:31:26.300Z,13.18
2022-10-03T09:34:32.380Z,13.24
2022-10-03T09:37:38.426Z,13.30
2022-10-03T09:40:34.549Z,13.37
2022-10-03T09:43:26.278Z,13.41
2022-10-03T09:46:33.567Z,13.44
2022-10-03T09:49:37.966Z,13.46
2022-10-03T09:52:27.990Z,13.43
2022-10-03T09:55:34.239Z,13.50
2022-10-03T09:58:26.046Z,13.45
2022-10-03T10:01:15.014Z,13.59
2022-10-03T10:04:15.821Z,13.63
2022-10-03T10:07:18.715Z,13.69
2022-10-03T10:10:20.533Z,13.71
2022-10-03T10:13:33.198Z,13.75
2022-10-03T10:16:31.095Z,13.75
2022-10-03T10:19:42.979Z,13.76
2022-10-03T10:22:47.918Z,13.77
2022-10-03T10:25:50.859Z,13.81
2022-10-03T10:28:44.319Z,13.80
2022-10-03T10:31:52.293Z,13.78
2022-10-03T10:35:08.452Z,13.82
2022-10-03T10:38:22.855Z,13.87
2022-10-03T10:41:19.723Z,13.87
2022-10-03T10:44:27.204Z,13.87
2022-10-03T10:47:34.064Z,13.81
2022-10-03T10:50:35.928Z,13.93
2022-10-03T10:53:41.177Z,13.93
2022-10-03T10:57:01.344Z,13.95
2022-10-03T11:00:07.889Z,13.98
2022-10-03T11:03:11.691Z,14.01
2022-10-03T11:06:27.480Z,14.01
2022-10-03T11:09:39.401Z,14.02
2022-10-03T11:12:40.530Z,13.96
2022-10-03T11:15:47.793Z,14.06
2022-10-03T11:19:20.596Z,14.07
2022-10-03T11:22:36.667Z,14.09
2022-10-03T11:25:55.495Z,14.10
2022-10-03T11:28:43.205Z,14.13
2022-10-03T11:31:50.865Z,14.15
2022-10-03T11:35:03.121Z,14.18
2022-10-03T11:37:44.196Z,14.15
2022-10-03T11:40:33.415Z,14.23
2022-10-03T11:43:36.627Z,14.26
2022-10-03T11:46:22.523Z,14.29
2022-10-03T11:48:57.603Z,14.34
2022-10-03T11:51:43.630Z,14.39
2022-10-03T11:54:31.531Z,14.42
2022-10-03T11:57:09.379Z,14.45
2022-10-03T12:00:00.168Z,14.49
2022-10-03T12:02:56.940Z,14.51
2022-10-03T12:05:35.670Z,14.54
2022-10-03T12:08:37.055Z,14.57
2022-10-03T12:11:16.086Z,14.59
2022-10-03T12:14:05.241Z,14.61
2022-10-03T12:16:53.359Z,14.65
2022-10-03T12:19:31.001Z,14.68
2022-10-03T12:22:06.345Z,14.70
2022-10-03T12:24:37.876Z,14.73
2022-10-03T12:27:19.437Z,14.76
2022-10-03T12:29:59.005Z,14.76
2022-10-03T12:32:49.889Z,14.78
2022-10-03T12:35:34.747Z,14.80
2022-10-03T12:38:22.693Z,14.84
2022-10-03T12:41:01.887Z,14.84
2022-10-03T12:43:46.802Z,14.87
2022-10-03T12:46:20.015Z,14.89
2022-10-03T12:48:56.090Z,14.92
2022-10-03T12:51:40.635Z,14.95
2022-10-03T12:54:23.563Z,14.95
2022-10-03T12:57:14.132Z,14.98
2022-10-03T12:59:48.679Z,15.00
2022-10-03T13:02:29.916Z,15.01
2022-10-03T13:05:24.705Z,15.00
2022-10-03T13:07:56.809Z,15.04
2022-10-03T13:10:35.309Z,15.00
2022-10-03T13:13:19.221Z,15.08
2022-10-03T13:16:19.799Z,15.10
2022-10-03T13:18:55.083Z,15.12
2022-10-03T13:21:45.389Z,15.14
2022-10-03T13:24:24.650Z,15.13
2022-10-03T13:26:59.286Z,15.14
2022-10-03T13:29:31.839Z,15.15
2022-10-03T13:32:25.264Z,15.15
2022-10-03T13:35:54.963Z,15.15
2022-10-03T13:38:47.069Z,15.15
2022-10-03T13:41:30.026Z,15.17
2022-10-03T13:44:02.094Z,15.18
2022-10-03T13:46:44.544Z,15.23
2022-10-03T13:49:20.288Z,15.26
2022-10-03T13:51:57.098Z,15.27
2022-10-03T13:54:47.823Z,15.30
2022-10-03T13:57:18.427Z,15.32
2022-10-03T13:59:57.918Z,15.33
2022-10-03T14:02:44.037Z,15.34
2022-10-03T14:05:34.319Z,15.35
2022-10-03T14:08:14.534Z,15.36
2022-10-03T14:11:15.146Z,15.38
2022-10-03T14:13:59.744Z,15.38
2022-10-03T14:16:31.698Z,15.40
2022-10-03T14:19:10.344Z,15.40
2022-10-03T14:21:56.660Z,15.39
2022-10-03T14:24:37.138Z,15.40
2022-10-03T14:27:14.144Z,15.41
2022-10-03T14:29:56.856Z,15.42
2022-10-03T14:32:46.872Z,15.41
2022-10-03T14:35:25.489Z,15.46
2022-10-03T14:38:03.296Z,15.46
2022-10-03T14:40:39.934Z,15.48
2022-10-03T14:43:14.857Z,15.49
2022-10-03T14:45:47.704Z,15.50
2022-10-03T14:48:19.824Z,15.50
2022-10-03T14:50:52.535Z,15.50
2022-10-03T14:53:25.647Z,15.42
2022-10-03T14:56:01.842Z,15.51
2022-10-03T14:58:33.477Z,15.50
2022-10-03T15:01:13.383Z,15.49
2022-10-03T15:03:45.343Z,15.51
2022-10-03T15:06:33.810Z,15.52
2022-10-03T15:09:07.196Z,15.53
2022-10-03T15:11:38.560Z,15.56
2022-10-03T15:14:10.064Z,15.50
2022-10-03T15:16:45.818Z,15.58
2022-10-03T15:19:18.977Z,15.59
2022-10-03T15:21:51.610Z,15.61
2022-10-03T15:24:25.463Z,15.52
2022-10-03T15:26:58.968Z,15.66
2022-10-03T15:29:27.278Z,15.65
2022-10-03T15:31:57.622Z,15.65
2022-10-03T15:34:33.023Z,15.65
2022-10-03T15:37:07.174Z,15.66
2022-10-03T15:39:40.539Z,15.65
2022-10-03T15:42:22.980Z,15.65
2022-10-03T15:44:54.143Z,15.65
2022-10-03T15:47:24.353Z,15.65
2022-10-03T15:49:56.847Z,15.64
2022-10-03T15:52:32.430Z,15.63
2022-10-03T15:55:12.619Z,15.65
2022-10-03T15:57:46.579Z,15.64
2022-10-03T16:00:22.543Z,15.65
2022-10-03T16:02:57.425Z,15.64
2022-10-03T16:05:25.832Z,15.65
2022-10-03T16:08:01.477Z,15.58
2022-10-03T16:10:37.486Z,15.65
2022-10-03T16:13:21.054Z,15.60
2022-10-03T16:16:07.390Z,15.67
2022-10-03T16:18:51.046Z,15.67
2022-10-03T16:21:31.202Z,15.65
2022-10-03T16:24:02.397Z,15.67
2022-10-03T16:26:36.721Z,15.67
2022-10-03T16:29:13.275Z,15.66
2022-10-03T16:31:48.498Z,15.65
2022-10-03T16:34:19.607Z,15.66
2022-10-03T16:36:50.385Z,15.66
2022-10-03T16:39:25.127Z,15.65
2022-10-03T16:41:55.827Z,15.59
2022-10-03T16:44:31.124Z,15.65
2022-10-03T16:47:04.230Z,15.63
2022-10-03T16:49:57.325Z,15.63
2022-10-03T16:52:31.812Z,15.63
2022-10-03T16:55:03.950Z,15.62
2022-10-03T16:57:41.976Z,15.62
2022-10-03T17:00:16.899Z,15.62
2022-10-03T17:02:45.197Z,15.63
2022-10-03T17:05:15.712Z,15.63
2022-10-03T17:07:46.082Z,15.63
2022-10-03T17:10:34.702Z,15.63
2022-10-03T17:13:12.661Z,15.61
2022-10-03T17:15:49.948Z,15.61
2022-10-03T17:18:26.513Z,15.59
2022-10-03T17:20:57.518Z,15.59
2022-10-03T17:23:33.609Z,15.58
2022-10-03T17:26:06.749Z,15.58
2022-10-03T17:28:41.401Z,15.49
2022-10-03T17:31:28.652Z,15.56
2022-10-03T17:34:03.445Z,15.52
2022-10-03T17:36:56.326Z,15.55
2022-10-03T17:39:39.937Z,15.55
2022-10-03T17:42:22.873Z,15.52
2022-10-03T17:45:00.427Z,15.56
2022-10-03T17:47:38.504Z,15.55
2022-10-03T17:50:12.181Z,15.53
2022-10-03T17:52:42.809Z,15.53
2022-10-03T17:55:18.692Z,15.54
2022-10-03T17:57:50.336Z,15.54
2022-10-03T18:00:22.481Z,15.52
2022-10-03T18:02:59.400Z,15.51
2022-10-03T18:05:31.918Z,15.52
2022-10-03T18:08:05.913Z,15.51
2022-10-03T18:10:38.392Z,15.44
2022-10-03T18:13:16.177Z,15.52
2022-10-03T18:16:19.606Z,15.52
2022-10-03T18:19:21.702Z,15.52
2022-10-03T18:22:07.586Z,15.51
2022-10-03T18:24:49.168Z,15.49
2022-10-03T18:27:42.439Z,15.50
2022-10-03T18:30:18.216Z,15.50
2022-10-03T18:32:46.794Z,15.49
2022-10-03T18:35:21.153Z,15.48
2022-10-03T18:38:12.369Z,15.47
2022-10-03T18:40:47.521Z,15.45
2022-10-03T18:43:32.468Z,15.45
2022-10-03T18:46:09.636Z,15.44
2022-10-03T18:48:43.857Z,15.43
2022-10-03T18:51:18.239Z,15.41
2022-10-03T18:53:49.799Z,15.42
2022-10-03T18:56:25.091Z,15.41
2022-10-03T18:59:08.952Z,15.41
2022-10-03T19:01:46.169Z,15.40
2022-10-03T19:04:18.581Z,15.39
2022-10-03T19:06:52.379Z,15.38
2022-10-03T19:09:27.169Z,15.37
2022-10-03T19:12:02.966Z,15.36
2022-10-03T19:14:36.401Z,15.27
2022-10-03T19:17:21.316Z,15.35
2022-10-03T19:19:58.785Z,15.33
2022-10-03T19:22:31.922Z,15.33
2022-10-03T19:25:02.689Z,15.32
2022-10-03T19:27:44.383Z,15.21
2022-10-03T19:30:18.537Z,15.29
2022-10-03T19:32:51.343Z,15.24
2022-10-03T19:35:21.934Z,15.26
2022-10-03T19:37:53.539Z,15.16
2022-10-03T19:40:43.459Z,15.27
2022-10-03T19:43:32.811Z,15.24
2022-10-03T19:46:12.724Z,15.26
2022-10-03T19:48:52.083Z,15.24
2022-10-03T19:51:25.681Z,15.23
2022-10-03T19:53:57.770Z,15.23
2022-10-03T19:56:27.653Z,15.22
2022-10-03T19:59:04.562Z,15.22
2022-10-03T20:01:43.394Z,15.21
2022-10-03T20:04:12.309Z,15.21
2022-10-03T20:06:44.128Z,15.21
2022-10-03T20:09:23.557Z,15.12
2022-10-03T20:11:56.422Z,15.22
2022-10-03T20:14:27.708Z,15.21
2022-10-03T20:17:01.017Z,15.10
2022-10-03T20:19:33.683Z,15.17
2022-10-03T20:22:06.947Z,15.09
2022-10-03T20:24:40.209Z,15.15
2022-10-03T20:27:22.127Z,15.14
2022-10-03T20:29:59.927Z,15.14
2022-10-03T20:32:28.939Z,15.05
2022-10-03T20:34:59.831Z,15.12
2022-10-03T20:37:49.172Z,15.11
2022-10-03T20:40:30.088Z,15.10
2022-10-03T20:43:14.659Z,15.09
2022-10-03T20:45:44.943Z,15.06
2022-10-03T20:48:17.996Z,15.07
2022-10-03T20:50:47.545Z,15.06
2022-10-03T20:53:20.641Z,15.05
2022-10-03T20:55:52.350Z,15.07
2022-10-03T20:58:29.924Z,15.05
2022-10-03T21:01:02.476Z,14.97
2022-10-03T21:03:39.264Z,15.05
2022-10-03T21:06:19.136Z,15.06
2022-10-03T21:08:48.689Z,15.05
2022-10-03T21:11:22.474Z,15.05
2022-10-03T21:13:55.763Z,15.05
2022-10-03T21:16:28.820Z,15.05
2022-10-03T21:19:00.966Z,15.03
2022-10-03T21:21:33.789Z,15.04
2022-10-03T21:24:05.915Z,15.04
2022-10-03T21:26:42.357Z,15.03
2022-10-03T21:29:18.826Z,15.02
2022-10-03T21:31:57.001Z,15.02
2022-10-03T21:34:31.440Z,15.01
2022-10-03T21:37:12.491Z,14.92
2022-10-03T21:39:51.283Z,15.01
2022-10-03T21:42:26.669Z,14.94
2022-10-03T21:45:09.316Z,14.98
2022-10-03T21:47:45.420Z,14.99
2022-10-03T21:50:21.205Z,14.98
2022-10-03T21:53:00.386Z,14.97
2022-10-03T21:55:52.761Z,14.97
2022-10-03T21:58:43.268Z,14.96
2022-10-03T22:01:18.312Z,14.94
2022-10-03T22:03:52.612Z,14.95
2022-10-03T22:06:24.913Z,14.86
2022-10-03T22:08:54.549Z,14.94
2022-10-03T22:11:34.689Z,14.92
2022-10-03T22:14:14.273Z,14.92
2022-10-03T22:16:50.585Z,14.91
2022-10-03T22:19:22.432Z,14.91
2022-10-03T22:22:07.544Z,14.91
2022-10-03T22:24:46.831Z,14.89
2022-10-03T22:27:21.146Z,14.88
2022-10-03T22:29:58.704Z,14.87
2022-10-03T22:32:31.535Z,14.79
2022-10-03T22:35:07.913Z,14.79
2022-10-03T22:37:35.713Z,14.86
2022-10-03T22:40:04.828Z,14.76
2022-10-03T22:42:40.224Z,14.82
2022-10-03T22:45:12.049Z,14.75
2022-10-03T22:47:41.323Z,14.82
2022-10-03T22:50:13.444Z,14.80
2022-10-03T22:52:44.655Z,14.73
2022-10-03T22:55:16.128Z,14.80
2022-10-03T22:57:45.925Z,14.79
2022-10-03T23:00:18.429Z,14.79
2022-10-03T23:02:50.618Z,14.77
2022-10-03T23:05:27.727Z,14.78
2022-10-03T23:08:08.139Z,14.75
2022-10-03T23:10:51.835Z,14.76
2022-10-03T23:13:35.999Z,14.75
2022-10-03T23:16:16.357Z,14.75
2022-10-03T23:18:54.306Z,14.74
2022-10-03T23:21:22.198Z,14.75
2022-10-03T23:24:03.335Z,14.73
2022-10-03T23:26:45.254Z,14.73
2022-10-03T23:29:14.335Z,14.71
2022-10-03T23:31:55.376Z,14.72
2022-10-03T23:34:46.382Z,14.71
2022-10-03T23:37:42.444Z,14.70
2022-10-03T23:40:30.720Z,14.68
2022-10-03T23:43:06.548Z,14.69
2022-10-03T23:45:36.499Z,14.68
2022-10-03T23:48:10.163Z,14.67
2022-10-03T23:50:43.008Z,14.67
2022-10-03T23:53:21.451Z,14.65
2022-10-03T23:55:49.458Z,14.64
2022-10-03T23:58:27.396Z,14.63
